KRRL/RRL METAR and TAF weather

Enter ICAO airport designator
Station Type Date Time Source
KRRL METAR 2020/04/04 11:55 UTC NOAA

KRRL 041155Z AUTO 00000KT 10SM OVC010 M04/M05 A3017 RMK AO2 70016 T10401052 11012 21041 TSNO


Station Type Date Time Source
KRRL Decoded METAR 2020/04/04 11:55 UTC NOAA

Merrill, Merrill Municipal Airport, WI, United States (KRRL) 45-11N 089-42W
Apr 04, 2020 - 07:55 AM EDT / 2020.04.04 1155 UTC
Wind: Calm:0
Visibility: 10 mile(s):0
Sky conditions: overcast
Temperature: 24.8 F (-4.0 C)
Dew Point: 22.6 F (-5.2 C)
Relative Humidity: 91%
Pressure (altimeter): 30.17 in. Hg (1021 hPa)
ob: KRRL 041155Z AUTO 00000KT 10SM OVC010 M04/M05 A3017 RMK AO2 70016 T10401052 11012 21041 TSNO
cycle: 12

Station Type Date Time Source
KRRL TAF UTC NOAA

Error!

Example: see airport list